sensor_id;sensor_type;location;lat;lon;timestamp;temperature;humidity
2825;DHT22;1420;51.324;12.344;2022-08-19T00:00:51;19.80;99.90
2825;DHT22;1420;51.324;12.344;2022-08-19T00:03:18;19.80;99.90
2825;DHT22;1420;51.324;12.344;2022-08-19T00:05:45;19.70;99.90
2825;DHT22;1420;51.324;12.344;2022-08-19T00:08:12;19.80;99.90
2825;DHT22;1420;51.324;12.344;2022-08-19T00:10:40;19.70;99.90
2825;DHT22;1420;51.324;12.344;2022-08-19T00:13:08;19.70;99.90
2825;DHT22;1420;51.324;12.344;2022-08-19T00:15:36;19.60;99.90
2825;DHT22;1420;51.324;12.344;2022-08-19T00:18:03;19.70;99.90
2825;DHT22;1420;51.324;12.344;2022-08-19T00:20:30;19.80;99.90
2825;DHT22;1420;51.324;12.344;2022-08-19T00:22:58;19.70;99.90
2825;DHT22;1420;51.324;12.344;2022-08-19T00:25:26;19.90;99.90
2825;DHT22;1420;51.324;12.344;2022-08-19T00:27:53;19.80;99.90
2825;DHT22;1420;51.324;12.344;2022-08-19T00:30:20;19.80;99.90
2825;DHT22;1420;51.324;12.344;2022-08-19T00:32:48;19.80;99.90
2825;DHT22;1420;51.324;12.344;2022-08-19T00:35:16;19.70;99.90
2825;DHT22;1420;51.324;12.344;2022-08-19T00:37:43;19.90;99.90
2825;DHT22;1420;51.324;12.344;2022-08-19T00:40:11;19.80;99.90
2825;DHT22;1420;51.324;12.344;2022-08-19T00:42:38;19.90;99.90
2825;DHT22;1420;51.324;12.344;2022-08-19T00:45:09;20.00;99.90
2825;DHT22;1420;51.324;12.344;2022-08-19T00:47:32;20.10;99.90
2825;DHT22;1420;51.324;12.344;2022-08-19T00:49:59;20.00;99.90
2825;DHT22;1420;51.324;12.344;2022-08-19T00:52:28;20.00;99.90
2825;DHT22;1420;51.324;12.344;2022-08-19T00:54:54;20.00;99.90
2825;DHT22;1420;51.324;12.344;2022-08-19T00:57:23;19.90;99.90
2825;DHT22;1420;51.324;12.344;2022-08-19T00:59:51;19.90;99.90
2825;DHT22;1420;51.324;12.344;2022-08-19T01:02:17;19.90;99.90
2825;DHT22;1420;51.324;12.344;2022-08-19T01:04:45;19.80;99.90
2825;DHT22;1420;51.324;12.344;2022-08-19T01:07:12;19.80;99.90
2825;DHT22;1420;51.324;12.344;2022-08-19T01:09:39;19.80;99.90
2825;DHT22;1420;51.324;12.344;2022-08-19T01:12:06;19.80;99.90
2825;DHT22;1420;51.324;12.344;2022-08-19T01:14:34;19.80;99.90
2825;DHT22;1420;51.324;12.344;2022-08-19T01:17:01;19.80;99.90
2825;DHT22;1420;51.324;12.344;2022-08-19T01:19:30;19.70;99.90
2825;DHT22;1420;51.324;12.344;2022-08-19T01:22:01;19.70;99.90
2825;DHT22;1420;51.324;12.344;2022-08-19T01:24:25;19.70;99.90
2825;DHT22;1420;51.324;12.344;2022-08-19T01:26:52;19.70;99.90
2825;DHT22;1420;51.324;12.344;2022-08-19T01:29:20;19.70;99.90
2825;DHT22;1420;51.324;12.344;2022-08-19T01:31:47;19.60;99.90
2825;DHT22;1420;51.324;12.344;2022-08-19T01:34:15;19.60;99.90
2825;DHT22;1420;51.324;12.344;2022-08-19T01:36:43;19.60;99.90
2825;DHT22;1420;51.324;12.344;2022-08-19T01:39:10;19.50;99.90
2825;DHT22;1420;51.324;12.344;2022-08-19T01:41:36;19.50;99.90
2825;DHT22;1420;51.324;12.344;2022-08-19T01:44:05;19.50;99.90
2825;DHT22;1420;51.324;12.344;2022-08-19T01:46:32;19.50;99.90
2825;DHT22;1420;51.324;12.344;2022-08-19T01:49:00;19.50;99.90
2825;DHT22;1420;51.324;12.344;2022-08-19T01:51:27;19.50;99.90
2825;DHT22;1420;51.324;12.344;2022-08-19T01:53:54;19.50;99.90
2825;DHT22;1420;51.324;12.344;2022-08-19T01:56:21;19.50;99.90
2825;DHT22;1420;51.324;12.344;2022-08-19T01:58:51;19.50;99.90
2825;DHT22;1420;51.324;12.344;2022-08-19T02:01:16;19.50;99.90
2825;DHT22;1420;51.324;12.344;2022-08-19T02:03:44;19.50;99.90
2825;DHT22;1420;51.324;12.344;2022-08-19T02:06:12;19.40;99.90
2825;DHT22;1420;51.324;12.344;2022-08-19T02:08:39;19.40;99.90
2825;DHT22;1420;51.324;12.344;2022-08-19T02:11:07;19.50;99.90
2825;DHT22;1420;51.324;12.344;2022-08-19T02:13:35;19.40;99.90
2825;DHT22;1420;51.324;12.344;2022-08-19T02:16:02;19.50;99.90
2825;DHT22;1420;51.324;12.344;2022-08-19T02:18:29;19.50;99.90
2825;DHT22;1420;51.324;12.344;2022-08-19T02:20:56;19.50;99.90
2825;DHT22;1420;51.324;12.344;2022-08-19T02:23:24;19.60;99.90
2825;DHT22;1420;51.324;12.344;2022-08-19T02:25:51;19.60;99.90
2825;DHT22;1420;51.324;12.344;2022-08-19T02:28:19;19.50;99.90
2825;DHT22;1420;51.324;12.344;2022-08-19T02:30:47;19.50;99.90
2825;DHT22;1420;51.324;12.344;2022-08-19T02:33:13;19.50;99.90
2825;DHT22;1420;51.324;12.344;2022-08-19T02:35:41;19.60;99.90
2825;DHT22;1420;51.324;12.344;2022-08-19T02:38:08;19.60;99.90
2825;DHT22;1420;51.324;12.344;2022-08-19T02:40:46;19.60;99.90
2825;DHT22;1420;51.324;12.344;2022-08-19T02:43:08;19.50;99.90
2825;DHT22;1420;51.324;12.344;2022-08-19T02:45:36;19.60;99.90
2825;DHT22;1420;51.324;12.344;2022-08-19T02:48:02;19.60;99.90
2825;DHT22;1420;51.324;12.344;2022-08-19T02:50:30;19.60;99.90
2825;DHT22;1420;51.324;12.344;2022-08-19T02:52:57;19.50;99.90
2825;DHT22;1420;51.324;12.344;2022-08-19T02:55:24;19.50;99.90
2825;DHT22;1420;51.324;12.344;2022-08-19T02:57:51;19.50;99.90
2825;DHT22;1420;51.324;12.344;2022-08-19T03:00:19;19.50;99.90
2825;DHT22;1420;51.324;12.344;2022-08-19T03:02:46;19.60;99.90
2825;DHT22;1420;51.324;12.344;2022-08-19T03:05:13;19.60;99.90
2825;DHT22;1420;51.324;12.344;2022-08-19T03:07:40;19.50;99.90
2825;DHT22;1420;51.324;12.344;2022-08-19T03:10:08;19.60;99.90
2825;DHT22;1420;51.324;12.344;2022-08-19T03:12:36;19.50;99.90
2825;DHT22;1420;51.324;12.344;2022-08-19T03:15:04;19.60;99.90
2825;DHT22;1420;51.324;12.344;2022-08-19T03:17:30;19.60;99.90
2825;DHT22;1420;51.324;12.344;2022-08-19T03:19:57;19.60;99.90
2825;DHT22;1420;51.324;12.344;2022-08-19T03:22:25;19.60;99.90
2825;DHT22;1420;51.324;12.344;2022-08-19T03:24:52;19.70;99.90
2825;DHT22;1420;51.324;12.344;2022-08-19T03:27:19;19.70;99.90
2825;DHT22;1420;51.324;12.344;2022-08-19T03:29:46;19.70;99.90
2825;DHT22;1420;51.324;12.344;2022-08-19T03:32:13;19.70;99.90
2825;DHT22;1420;51.324;12.344;2022-08-19T03:34:41;19.70;99.90
2825;DHT22;1420;51.324;12.344;2022-08-19T03:37:09;19.70;99.90
2825;DHT22;1420;51.324;12.344;2022-08-19T03:39:36;19.60;99.90
2825;DHT22;1420;51.324;12.344;2022-08-19T03:42:02;19.70;99.90
2825;DHT22;1420;51.324;12.344;2022-08-19T03:44:30;19.70;99.90
2825;DHT22;1420;51.324;12.344;2022-08-19T03:46:57;19.70;99.90
2825;DHT22;1420;51.324;12.344;2022-08-19T03:49:26;19.70;99.90
2825;DHT22;1420;51.324;12.344;2022-08-19T03:51:52;19.60;99.90
2825;DHT22;1420;51.324;12.344;2022-08-19T03:54:20;19.70;99.90
2825;DHT22;1420;51.324;12.344;2022-08-19T03:56:47;19.70;99.90
2825;DHT22;1420;51.324;12.344;2022-08-19T03:59:20;19.70;99.90
2825;DHT22;1420;51.324;12.344;2022-08-19T04:01:41;19.60;99.90
2825;DHT22;1420;51.324;12.344;2022-08-19T04:04:08;19.70;99.90
2825;DHT22;1420;51.324;12.344;2022-08-19T04:06:36;19.70;99.90
2825;DHT22;1420;51.324;12.344;2022-08-19T04:09:04;19.70;99.90
2825;DHT22;1420;51.324;12.344;2022-08-19T04:11:34;19.70;99.90
2825;DHT22;1420;51.324;12.344;2022-08-19T04:13:59;19.70;99.90
2825;DHT22;1420;51.324;12.344;2022-08-19T04:16:27;19.60;99.90
2825;DHT22;1420;51.324;12.344;2022-08-19T04:18:56;19.60;99.90
2825;DHT22;1420;51.324;12.344;2022-08-19T04:21:24;19.70;99.90
2825;DHT22;1420;51.324;12.344;2022-08-19T04:23:50;19.80;99.90
2825;DHT22;1420;51.324;12.344;2022-08-19T04:26:20;19.70;99.90
2825;DHT22;1420;51.324;12.344;2022-08-19T04:28:46;19.70;99.90
2825;DHT22;1420;51.324;12.344;2022-08-19T04:31:14;19.70;99.90
2825;DHT22;1420;51.324;12.344;2022-08-19T04:33:40;19.70;99.90
2825;DHT22;1420;51.324;12.344;2022-08-19T04:36:08;19.70;99.90
2825;DHT22;1420;51.324;12.344;2022-08-19T04:38:35;19.70;99.90
2825;DHT22;1420;51.324;12.344;2022-08-19T04:41:02;19.80;99.90
2825;DHT22;1420;51.324;12.344;2022-08-19T04:43:36;19.70;99.90
2825;DHT22;1420;51.324;12.344;2022-08-19T04:46:05;19.70;99.90
2825;DHT22;1420;51.324;12.344;2022-08-19T04:48:32;19.70;99.90
2825;DHT22;1420;51.324;12.344;2022-08-19T04:51:00;19.70;99.90
2825;DHT22;1420;51.324;12.344;2022-08-19T04:53:28;19.80;99.90
2825;DHT22;1420;51.324;12.344;2022-08-19T04:55:55;19.80;99.90
2825;DHT22;1420;51.324;12.344;2022-08-19T04:58:23;19.80;99.90
2825;DHT22;1420;51.324;12.344;2022-08-19T05:00:49;19.80;99.90
2825;DHT22;1420;51.324;12.344;2022-08-19T05:03:16;19.80;99.90
2825;DHT22;1420;51.324;12.344;2022-08-19T05:05:44;19.80;99.90
2825;DHT22;1420;51.324;12.344;2022-08-19T05:08:11;19.90;99.90
2825;DHT22;1420;51.324;12.344;2022-08-19T05:10:38;19.90;99.90
2825;DHT22;1420;51.324;12.344;2022-08-19T05:13:05;19.90;99.90
2825;DHT22;1420;51.324;12.344;2022-08-19T05:15:32;19.90;99.90
2825;DHT22;1420;51.324;12.344;2022-08-19T05:18:00;19.90;99.90
2825;DHT22;1420;51.324;12.344;2022-08-19T05:20:33;19.90;99.90
2825;DHT22;1420;51.324;12.344;2022-08-19T05:23:16;19.90;99.90
2825;DHT22;1420;51.324;12.344;2022-08-19T05:25:43;19.90;99.90
2825;DHT22;1420;51.324;12.344;2022-08-19T05:28:10;20.00;99.90
2825;DHT22;1420;51.324;12.344;2022-08-19T05:30:38;19.90;99.90
2825;DHT22;1420;51.324;12.344;2022-08-19T05:33:05;19.90;99.90
2825;DHT22;1420;51.324;12.344;2022-08-19T05:35:32;19.90;99.90
2825;DHT22;1420;51.324;12.344;2022-08-19T05:38:00;19.80;99.90
2825;DHT22;1420;51.324;12.344;2022-08-19T05:40:28;19.80;99.90
2825;DHT22;1420;51.324;12.344;2022-08-19T05:42:56;19.90;99.90
2825;DHT22;1420;51.324;12.344;2022-08-19T05:45:23;19.90;99.90
2825;DHT22;1420;51.324;12.344;2022-08-19T05:47:51;19.90;99.90
2825;DHT22;1420;51.324;12.344;2022-08-19T05:50:18;19.90;99.90
2825;DHT22;1420;51.324;12.344;2022-08-19T05:52:45;19.90;99.90
2825;DHT22;1420;51.324;12.344;2022-08-19T05:55:12;19.90;99.90
2825;DHT22;1420;51.324;12.344;2022-08-19T05:57:40;20.00;99.90
2825;DHT22;1420;51.324;12.344;2022-08-19T06:00:08;20.00;99.90
2825;DHT22;1420;51.324;12.344;2022-08-19T06:02:35;20.00;99.90
2825;DHT22;1420;51.324;12.344;2022-08-19T06:05:03;20.00;99.90
2825;DHT22;1420;51.324;12.344;2022-08-19T06:07:31;19.90;99.90
2825;DHT22;1420;51.324;12.344;2022-08-19T06:09:59;19.90;99.90
2825;DHT22;1420;51.324;12.344;2022-08-19T06:12:28;19.90;99.90
2825;DHT22;1420;51.324;12.344;2022-08-19T06:14:55;19.90;99.90
2825;DHT22;1420;51.324;12.344;2022-08-19T06:17:22;19.90;99.90
2825;DHT22;1420;51.324;12.344;2022-08-19T06:19:50;19.90;99.90
2825;DHT22;1420;51.324;12.344;2022-08-19T06:22:18;19.90;99.90
2825;DHT22;1420;51.324;12.344;2022-08-19T06:24:46;19.80;99.90
2825;DHT22;1420;51.324;12.344;2022-08-19T06:27:14;19.90;99.90
2825;DHT22;1420;51.324;12.344;2022-08-19T06:29:42;19.90;99.90
2825;DHT22;1420;51.324;12.344;2022-08-19T06:32:10;19.90;99.90
2825;DHT22;1420;51.324;12.344;2022-08-19T06:34:37;19.90;99.90
2825;DHT22;1420;51.324;12.344;2022-08-19T06:37:05;20.00;99.90
2825;DHT22;1420;51.324;12.344;2022-08-19T06:39:33;20.00;99.90
2825;DHT22;1420;51.324;12.344;2022-08-19T06:42:00;20.00;99.90
2825;DHT22;1420;51.324;12.344;2022-08-19T06:44:27;20.00;99.90
2825;DHT22;1420;51.324;12.344;2022-08-19T06:46:54;20.00;99.90
2825;DHT22;1420;51.324;12.344;2022-08-19T06:49:21;20.00;99.90
2825;DHT22;1420;51.324;12.344;2022-08-19T06:51:49;19.90;99.90
2825;DHT22;1420;51.324;12.344;2022-08-19T06:54:17;19.90;99.90
2825;DHT22;1420;51.324;12.344;2022-08-19T06:56:44;19.90;99.90
2825;DHT22;1420;51.324;12.344;2022-08-19T06:59:12;19.80;99.90
2825;DHT22;1420;51.324;12.344;2022-08-19T07:01:39;19.80;99.90
2825;DHT22;1420;51.324;12.344;2022-08-19T07:04:06;19.90;99.90
2825;DHT22;1420;51.324;12.344;2022-08-19T07:06:33;19.80;99.90
2825;DHT22;1420;51.324;12.344;2022-08-19T07:09:00;19.80;99.90
2825;DHT22;1420;51.324;12.344;2022-08-19T07:11:27;19.80;99.90
2825;DHT22;1420;51.324;12.344;2022-08-19T07:13:55;19.80;99.90
2825;DHT22;1420;51.324;12.344;2022-08-19T07:16:23;19.70;99.90
2825;DHT22;1420;51.324;12.344;2022-08-19T07:18:51;19.70;99.90
2825;DHT22;1420;51.324;12.344;2022-08-19T07:21:24;19.70;99.90
2825;DHT22;1420;51.324;12.344;2022-08-19T07:23:51;19.80;99.90
2825;DHT22;1420;51.324;12.344;2022-08-19T07:26:20;19.80;99.90
2825;DHT22;1420;51.324;12.344;2022-08-19T07:28:47;19.80;99.90
2825;DHT22;1420;51.324;12.344;2022-08-19T07:31:14;19.80;99.90
2825;DHT22;1420;51.324;12.344;2022-08-19T07:33:40;19.80;99.90
2825;DHT22;1420;51.324;12.344;2022-08-19T07:36:08;19.80;99.90
2825;DHT22;1420;51.324;12.344;2022-08-19T07:38:35;19.90;99.90
2825;DHT22;1420;51.324;12.344;2022-08-19T07:41:02;19.80;99.90
2825;DHT22;1420;51.324;12.344;2022-08-19T07:43:29;19.80;99.90
2825;DHT22;1420;51.324;12.344;2022-08-19T07:45:57;19.80;99.90
2825;DHT22;1420;51.324;12.344;2022-08-19T07:48:26;19.80;99.90
2825;DHT22;1420;51.324;12.344;2022-08-19T07:50:55;19.80;99.90
2825;DHT22;1420;51.324;12.344;2022-08-19T07:53:21;19.80;99.90
2825;DHT22;1420;51.324;12.344;2022-08-19T07:55:48;19.80;99.90
2825;DHT22;1420;51.324;12.344;2022-08-19T07:58:16;19.80;99.90
2825;DHT22;1420;51.324;12.344;2022-08-19T08:00:44;19.90;99.90
2825;DHT22;1420;51.324;12.344;2022-08-19T08:03:12;19.90;99.90
2825;DHT22;1420;51.324;12.344;2022-08-19T08:05:39;19.90;99.90
2825;DHT22;1420;51.324;12.344;2022-08-19T08:08:12;20.00;99.90
2825;DHT22;1420;51.324;12.344;2022-08-19T08:10:44;20.00;99.90
2825;DHT22;1420;51.324;12.344;2022-08-19T08:13:11;20.00;99.90
2825;DHT22;1420;51.324;12.344;2022-08-19T08:15:39;20.10;99.90
2825;DHT22;1420;51.324;12.344;2022-08-19T08:18:06;20.10;99.90
2825;DHT22;1420;51.324;12.344;2022-08-19T08:20:34;20.20;99.90
2825;DHT22;1420;51.324;12.344;2022-08-19T08:23:02;20.00;99.90
2825;DHT22;1420;51.324;12.344;2022-08-19T08:25:35;20.00;99.90
2825;DHT22;1420;51.324;12.344;2022-08-19T08:28:02;20.00;99.90
2825;DHT22;1420;51.324;12.344;2022-08-19T08:30:29;20.00;99.90
2825;DHT22;1420;51.324;12.344;2022-08-19T08:32:56;20.10;99.90
2825;DHT22;1420;51.324;12.344;2022-08-19T08:35:23;20.10;99.90
2825;DHT22;1420;51.324;12.344;2022-08-19T08:37:51;20.00;99.90
2825;DHT22;1420;51.324;12.344;2022-08-19T08:40:21;19.90;99.90
2825;DHT22;1420;51.324;12.344;2022-08-19T08:42:53;19.90;99.90
2825;DHT22;1420;51.324;12.344;2022-08-19T08:45:18;20.00;99.90
2825;DHT22;1420;51.324;12.344;2022-08-19T08:47:46;20.00;99.90
2825;DHT22;1420;51.324;12.344;2022-08-19T08:50:21;19.90;99.90
2825;DHT22;1420;51.324;12.344;2022-08-19T08:52:47;20.10;99.90
2825;DHT22;1420;51.324;12.344;2022-08-19T08:55:16;20.00;99.90
2825;DHT22;1420;51.324;12.344;2022-08-19T08:57:51;20.00;99.90
2825;DHT22;1420;51.324;12.344;2022-08-19T09:00:17;20.00;99.90
2825;DHT22;1420;51.324;12.344;2022-08-19T09:02:43;20.00;99.90
2825;DHT22;1420;51.324;12.344;2022-08-19T09:05:11;20.20;99.90
2825;DHT22;1420;51.324;12.344;2022-08-19T09:10:37;20.10;99.90
2825;DHT22;1420;51.324;12.344;2022-08-19T09:13:24;20.00;99.90
2825;DHT22;1420;51.324;12.344;2022-08-19T09:15:51;19.90;99.90
2825;DHT22;1420;51.324;12.344;2022-08-19T09:18:16;20.10;99.90
2825;DHT22;1420;51.324;12.344;2022-08-19T09:20:44;20.10;99.90
2825;DHT22;1420;51.324;12.344;2022-08-19T09:23:12;20.30;99.90
2825;DHT22;1420;51.324;12.344;2022-08-19T09:25:39;20.20;99.90
2825;DHT22;1420;51.324;12.344;2022-08-19T09:28:06;20.30;99.90
2825;DHT22;1420;51.324;12.344;2022-08-19T09:30:34;20.30;99.90
2825;DHT22;1420;51.324;12.344;2022-08-19T09:33:01;20.40;99.90
2825;DHT22;1420;51.324;12.344;2022-08-19T09:35:29;20.40;99.90
2825;DHT22;1420;51.324;12.344;2022-08-19T09:37:56;20.30;99.90
2825;DHT22;1420;51.324;12.344;2022-08-19T09:40:23;20.40;99.90
2825;DHT22;1420;51.324;12.344;2022-08-19T09:42:50;20.30;99.90
2825;DHT22;1420;51.324;12.344;2022-08-19T09:45:19;20.50;99.90
2825;DHT22;1420;51.324;12.344;2022-08-19T09:47:46;20.60;99.90
2825;DHT22;1420;51.324;12.344;2022-08-19T09:50:14;20.70;99.90
2825;DHT22;1420;51.324;12.344;2022-08-19T09:52:42;20.70;99.90
2825;DHT22;1420;51.324;12.344;2022-08-19T09:55:09;20.70;99.90
2825;DHT22;1420;51.324;12.344;2022-08-19T09:57:37;20.50;99.90
2825;DHT22;1420;51.324;12.344;2022-08-19T10:00:05;20.60;99.90
2825;DHT22;1420;51.324;12.344;2022-08-19T10:02:33;20.60;72.10
2825;DHT22;1420;51.324;12.344;2022-08-19T10:05:01;20.70;4.40
2825;DHT22;1420;51.324;12.344;2022-08-19T10:07:33;20.60;5.90
2825;DHT22;1420;51.324;12.344;2022-08-19T10:10:01;20.50;26.00
2825;DHT22;1420;51.324;12.344;2022-08-19T10:12:28;20.60;43.00
2825;DHT22;1420;51.324;12.344;2022-08-19T10:14:56;20.70;13.50
2825;DHT22;1420;51.324;12.344;2022-08-19T10:17:24;20.70;1.00
2825;DHT22;1420;51.324;12.344;2022-08-19T10:19:52;21.10;1.00
2825;DHT22;1420;51.324;12.344;2022-08-19T10:22:19;21.10;1.00
2825;DHT22;1420;51.324;12.344;2022-08-19T10:24:47;21.40;99.90
2825;DHT22;1420;51.324;12.344;2022-08-19T10:27:15;21.20;1.00
2825;DHT22;1420;51.324;12.344;2022-08-19T10:29:43;21.40;1.00
2825;DHT22;1420;51.324;12.344;2022-08-19T10:32:11;21.20;99.90
2825;DHT22;1420;51.324;12.344;2022-08-19T10:34:39;21.40;1.00
2825;DHT22;1420;51.324;12.344;2022-08-19T10:37:06;21.30;1.00
2825;DHT22;1420;51.324;12.344;2022-08-19T10:39:33;21.40;1.00
2825;DHT22;1420;51.324;12.344;2022-08-19T10:42:04;21.40;99.90
2825;DHT22;1420;51.324;12.344;2022-08-19T10:44:31;21.50;99.90
2825;DHT22;1420;51.324;12.344;2022-08-19T10:46:58;21.40;99.90
2825;DHT22;1420;51.324;12.344;2022-08-19T10:49:25;21.20;1.00
2825;DHT22;1420;51.324;12.344;2022-08-19T10:51:52;21.10;99.90
2825;DHT22;1420;51.324;12.344;2022-08-19T10:54:25;21.10;99.90
2825;DHT22;1420;51.324;12.344;2022-08-19T10:56:53;21.10;99.90
2825;DHT22;1420;51.324;12.344;2022-08-19T10:59:28;21.20;99.90
2825;DHT22;1420;51.324;12.344;2022-08-19T11:01:54;21.60;24.30
2825;DHT22;1420;51.324;12.344;2022-08-19T11:04:21;21.60;99.90
2825;DHT22;1420;51.324;12.344;2022-08-19T11:06:49;21.80;99.90
2825;DHT22;1420;51.324;12.344;2022-08-19T11:09:18;21.90;99.90
2825;DHT22;1420;51.324;12.344;2022-08-19T11:11:45;21.80;99.90
2825;DHT22;1420;51.324;12.344;2022-08-19T11:14:14;21.80;99.90
2825;DHT22;1420;51.324;12.344;2022-08-19T11:16:40;21.90;99.90
2825;DHT22;1420;51.324;12.344;2022-08-19T11:19:07;21.90;99.90
2825;DHT22;1420;51.324;12.344;2022-08-19T11:21:38;21.80;99.90
2825;DHT22;1420;51.324;12.344;2022-08-19T11:24:06;21.50;99.90
2825;DHT22;1420;51.324;12.344;2022-08-19T11:26:32;21.30;99.90
2825;DHT22;1420;51.324;12.344;2022-08-19T11:29:00;21.30;99.90
2825;DHT22;1420;51.324;12.344;2022-08-19T11:31:29;21.50;99.90
2825;DHT22;1420;51.324;12.344;2022-08-19T11:33:55;21.50;99.90
2825;DHT22;1420;51.324;12.344;2022-08-19T11:36:22;21.90;99.90
2825;DHT22;1420;51.324;12.344;2022-08-19T11:38:50;22.20;99.90
2825;DHT22;1420;51.324;12.344;2022-08-19T11:41:19;22.30;99.90
2825;DHT22;1420;51.324;12.344;2022-08-19T11:43:46;22.70;99.90
2825;DHT22;1420;51.324;12.344;2022-08-19T11:46:13;22.60;99.90
2825;DHT22;1420;51.324;12.344;2022-08-19T11:48:40;22.70;99.90
2825;DHT22;1420;51.324;12.344;2022-08-19T11:51:08;22.70;99.90
2825;DHT22;1420;51.324;12.344;2022-08-19T11:53:35;23.00;99.90
2825;DHT22;1420;51.324;12.344;2022-08-19T11:56:02;23.10;99.90
2825;DHT22;1420;51.324;12.344;2022-08-19T11:58:30;22.50;99.90
2825;DHT22;1420;51.324;12.344;2022-08-19T12:00:58;22.60;99.90
2825;DHT22;1420;51.324;12.344;2022-08-19T12:03:26;22.40;99.90
2825;DHT22;1420;51.324;12.344;2022-08-19T12:05:54;22.30;99.90
2825;DHT22;1420;51.324;12.344;2022-08-19T12:08:22;22.40;99.90
2825;DHT22;1420;51.324;12.344;2022-08-19T12:10:49;22.30;99.90
2825;DHT22;1420;51.324;12.344;2022-08-19T12:13:16;22.30;99.90
2825;DHT22;1420;51.324;12.344;2022-08-19T12:15:44;22.10;99.90
2825;DHT22;1420;51.324;12.344;2022-08-19T12:18:11;22.50;99.90
2825;DHT22;1420;51.324;12.344;2022-08-19T12:20:39;22.50;99.90
2825;DHT22;1420;51.324;12.344;2022-08-19T12:23:06;22.50;99.90
2825;DHT22;1420;51.324;12.344;2022-08-19T12:25:32;22.70;99.90
2825;DHT22;1420;51.324;12.344;2022-08-19T12:28:00;23.30;99.90
2825;DHT22;1420;51.324;12.344;2022-08-19T12:30:28;23.80;99.90
2825;DHT22;1420;51.324;12.344;2022-08-19T12:32:55;23.70;99.90
2825;DHT22;1420;51.324;12.344;2022-08-19T12:35:23;23.60;99.90
2825;DHT22;1420;51.324;12.344;2022-08-19T12:37:51;23.70;99.90
2825;DHT22;1420;51.324;12.344;2022-08-19T12:40:20;23.60;99.90
2825;DHT22;1420;51.324;12.344;2022-08-19T12:42:48;23.60;99.90
2825;DHT22;1420;51.324;12.344;2022-08-19T12:45:15;23.90;99.90
2825;DHT22;1420;51.324;12.344;2022-08-19T12:47:43;24.10;99.90
2825;DHT22;1420;51.324;12.344;2022-08-19T12:50:11;23.90;99.90
2825;DHT22;1420;51.324;12.344;2022-08-19T12:52:39;23.80;99.90
2825;DHT22;1420;51.324;12.344;2022-08-19T12:55:07;23.90;99.90
2825;DHT22;1420;51.324;12.344;2022-08-19T12:57:35;23.80;99.90
2825;DHT22;1420;51.324;12.344;2022-08-19T13:00:06;23.50;99.90
2825;DHT22;1420;51.324;12.344;2022-08-19T13:02:32;23.50;99.90
2825;DHT22;1420;51.324;12.344;2022-08-19T13:05:00;23.80;99.90
2825;DHT22;1420;51.324;12.344;2022-08-19T13:07:28;24.10;99.90
2825;DHT22;1420;51.324;12.344;2022-08-19T13:09:56;24.30;99.90
2825;DHT22;1420;51.324;12.344;2022-08-19T13:12:23;24.20;99.90
2825;DHT22;1420;51.324;12.344;2022-08-19T13:14:50;24.20;99.90
2825;DHT22;1420;51.324;12.344;2022-08-19T13:17:19;23.60;99.90
2825;DHT22;1420;51.324;12.344;2022-08-19T13:19:46;23.30;99.90
2825;DHT22;1420;51.324;12.344;2022-08-19T13:22:14;23.40;99.90
2825;DHT22;1420;51.324;12.344;2022-08-19T13:24:42;23.40;99.90
2825;DHT22;1420;51.324;12.344;2022-08-19T13:27:09;23.40;99.90
2825;DHT22;1420;51.324;12.344;2022-08-19T13:29:36;23.40;99.90
2825;DHT22;1420;51.324;12.344;2022-08-19T13:32:09;23.50;99.90
2825;DHT22;1420;51.324;12.344;2022-08-19T13:34:42;23.30;99.90
2825;DHT22;1420;51.324;12.344;2022-08-19T13:37:10;22.90;99.90
2825;DHT22;1420;51.324;12.344;2022-08-19T13:39:37;23.00;99.90
2825;DHT22;1420;51.324;12.344;2022-08-19T13:42:08;23.20;99.90
2825;DHT22;1420;51.324;12.344;2022-08-19T13:44:35;23.10;99.90
2825;DHT22;1420;51.324;12.344;2022-08-19T13:47:03;23.20;99.90
2825;DHT22;1420;51.324;12.344;2022-08-19T13:49:29;22.90;99.90
2825;DHT22;1420;51.324;12.344;2022-08-19T13:51:57;22.90;99.90
2825;DHT22;1420;51.324;12.344;2022-08-19T13:54:25;22.60;99.90
2825;DHT22;1420;51.324;12.344;2022-08-19T13:56:52;22.60;99.90
2825;DHT22;1420;51.324;12.344;2022-08-19T13:59:20;22.50;99.90
2825;DHT22;1420;51.324;12.344;2022-08-19T14:01:48;22.50;99.90
2825;DHT22;1420;51.324;12.344;2022-08-19T14:04:15;22.50;99.90
2825;DHT22;1420;51.324;12.344;2022-08-19T14:06:42;22.50;99.90
2825;DHT22;1420;51.324;12.344;2022-08-19T14:09:09;22.60;99.90
2825;DHT22;1420;51.324;12.344;2022-08-19T14:11:36;22.50;99.90
2825;DHT22;1420;51.324;12.344;2022-08-19T14:14:04;22.70;99.90
2825;DHT22;1420;51.324;12.344;2022-08-19T14:16:31;22.60;99.90
2825;DHT22;1420;51.324;12.344;2022-08-19T14:18:59;22.60;99.90
2825;DHT22;1420;51.324;12.344;2022-08-19T14:21:27;22.70;99.90
2825;DHT22;1420;51.324;12.344;2022-08-19T14:23:55;22.90;99.90
2825;DHT22;1420;51.324;12.344;2022-08-19T14:26:22;22.90;99.90
2825;DHT22;1420;51.324;12.344;2022-08-19T14:28:49;22.90;99.90
2825;DHT22;1420;51.324;12.344;2022-08-19T14:31:16;22.90;99.90
2825;DHT22;1420;51.324;12.344;2022-08-19T14:33:45;22.80;99.90
2825;DHT22;1420;51.324;12.344;2022-08-19T14:36:11;23.00;99.90
2825;DHT22;1420;51.324;12.344;2022-08-19T14:38:38;23.00;99.90
2825;DHT22;1420;51.324;12.344;2022-08-19T14:41:07;22.90;99.90
2825;DHT22;1420;51.324;12.344;2022-08-19T14:43:33;22.90;99.90
2825;DHT22;1420;51.324;12.344;2022-08-19T14:46:00;22.90;99.90
2825;DHT22;1420;51.324;12.344;2022-08-19T14:48:28;22.80;99.90
2825;DHT22;1420;51.324;12.344;2022-08-19T14:50:56;22.80;99.90
2825;DHT22;1420;51.324;12.344;2022-08-19T14:53:24;22.70;99.90
2825;DHT22;1420;51.324;12.344;2022-08-19T14:55:52;22.60;99.90
2825;DHT22;1420;51.324;12.344;2022-08-19T14:58:20;22.80;99.90
2825;DHT22;1420;51.324;12.344;2022-08-19T15:00:48;22.90;99.90
2825;DHT22;1420;51.324;12.344;2022-08-19T15:03:16;23.10;99.90
2825;DHT22;1420;51.324;12.344;2022-08-19T15:05:44;23.00;99.90
2825;DHT22;1420;51.324;12.344;2022-08-19T15:08:12;23.10;99.90
2825;DHT22;1420;51.324;12.344;2022-08-19T15:10:39;23.20;99.90
2825;DHT22;1420;51.324;12.344;2022-08-19T15:13:06;23.20;99.90
2825;DHT22;1420;51.324;12.344;2022-08-19T15:15:34;23.00;99.90
2825;DHT22;1420;51.324;12.344;2022-08-19T15:18:01;23.00;99.90
2825;DHT22;1420;51.324;12.344;2022-08-19T15:20:28;22.80;99.90
2825;DHT22;1420;51.324;12.344;2022-08-19T15:22:56;22.70;99.90
2825;DHT22;1420;51.324;12.344;2022-08-19T15:25:23;22.70;99.90
2825;DHT22;1420;51.324;12.344;2022-08-19T15:27:50;22.70;99.90
2825;DHT22;1420;51.324;12.344;2022-08-19T15:30:19;22.50;99.90
2825;DHT22;1420;51.324;12.344;2022-08-19T15:32:44;22.50;99.90
2825;DHT22;1420;51.324;12.344;2022-08-19T15:35:12;22.20;99.90
2825;DHT22;1420;51.324;12.344;2022-08-19T15:37:40;22.80;99.90
2825;DHT22;1420;51.324;12.344;2022-08-19T15:40:08;22.60;99.90
2825;DHT22;1420;51.324;12.344;2022-08-19T15:42:36;22.60;99.90
2825;DHT22;1420;51.324;12.344;2022-08-19T15:45:04;22.40;99.90
2825;DHT22;1420;51.324;12.344;2022-08-19T15:47:31;22.40;99.90
2825;DHT22;1420;51.324;12.344;2022-08-19T15:49:58;22.50;99.90
2825;DHT22;1420;51.324;12.344;2022-08-19T15:52:25;22.50;99.90